createdAt,value
2022-09-17T00:01:08.818Z,75.23
2022-09-17T00:03:36.376Z,75.58
2022-09-17T00:06:09.153Z,75.31
2022-09-17T00:08:38.159Z,75.98
2022-09-17T00:11:14.861Z,74.90
2022-09-17T00:13:45.431Z,75.40
2022-09-17T00:16:13.626Z,75.13
2022-09-17T00:18:42.108Z,75.86
2022-09-17T00:21:17.766Z,76.06
2022-09-17T00:23:44.822Z,75.98
2022-09-17T00:26:12.755Z,75.66
2022-09-17T00:28:39.948Z,75.95
2022-09-17T00:31:09.244Z,76.11
2022-09-17T00:33:37.056Z,75.87
2022-09-17T00:36:05.510Z,75.81
2022-09-17T00:38:32.816Z,75.84
2022-09-17T00:41:00.274Z,76.54
2022-09-17T00:43:39.401Z,76.04
2022-09-17T00:46:24.059Z,76.07
2022-09-17T00:48:54.153Z,76.06
2022-09-17T00:51:28.382Z,76.79
2022-09-17T00:53:56.941Z,76.24
2022-09-17T00:56:28.198Z,76.03
2022-09-17T00:58:55.976Z,76.13
2022-09-17T01:01:23.102Z,75.87
2022-09-17T01:03:50.447Z,75.84
2022-09-17T01:06:29.371Z,76.32
2022-09-17T01:09:05.346Z,76.46
2022-09-17T01:11:55.476Z,76.35
2022-09-17T01:14:37.348Z,76.06
2022-09-17T01:17:30.677Z,76.38
2022-09-17T01:20:11.145Z,76.00
2022-09-17T01:23:10.527Z,75.97
2022-09-17T01:25:57.866Z,76.33
2022-09-17T01:28:46.078Z,76.20
2022-09-17T01:31:25.765Z,75.81
2022-09-17T01:34:07.640Z,75.98
2022-09-17T01:36:50.600Z,76.17
2022-09-17T01:39:38.942Z,76.24
2022-09-17T01:42:36.215Z,76.25
2022-09-17T01:45:10.680Z,76.18
2022-09-17T01:47:42.814Z,76.13
2022-09-17T01:50:21.449Z,76.30
2022-09-17T01:52:52.719Z,75.65
2022-09-17T01:55:23.024Z,77.05
2022-09-17T01:58:08.583Z,76.46
2022-09-17T02:00:37.862Z,76.69
2022-09-17T02:03:14.552Z,76.88
2022-09-17T02:05:57.058Z,77.34
2022-09-17T02:08:26.715Z,77.45
2022-09-17T02:11:09.758Z,77.38
2022-09-17T02:13:59.143Z,77.37
2022-09-17T02:16:27.365Z,77.29
2022-09-17T02:19:00.340Z,77.14
2022-09-17T02:21:44.308Z,77.66
2022-09-17T02:24:38.198Z,77.06
2022-09-17T02:27:12.454Z,77.57
2022-09-17T02:29:44.459Z,77.45
2022-09-17T02:32:13.946Z,77.65
2022-09-17T02:34:41.473Z,77.35
2022-09-17T02:37:09.309Z,77.13
2022-09-17T02:39:36.418Z,77.54
2022-09-17T02:42:45.164Z,77.16
2022-09-17T02:45:30.873Z,76.94
2022-09-17T02:48:23.291Z,77.53
2022-09-17T02:51:01.284Z,77.95
2022-09-17T02:54:13.448Z,77.59
2022-09-17T02:56:58.054Z,77.66
2022-09-17T02:59:42.266Z,77.67
2022-09-17T03:02:31.145Z,77.76
2022-09-17T03:04:59.295Z,77.23
2022-09-17T03:07:29.445Z,77.50
2022-09-17T03:09:56.554Z,78.05
2022-09-17T03:12:24.756Z,78.01
2022-09-17T03:14:52.058Z,77.78
2022-09-17T03:17:19.112Z,78.26
2022-09-17T03:19:46.052Z,77.55
2022-09-17T03:22:13.093Z,77.96
2022-09-17T03:24:40.032Z,78.35
2022-09-17T03:27:06.987Z,78.02
2022-09-17T03:29:34.335Z,77.92
2022-09-17T03:32:01.553Z,78.17
2022-09-17T03:34:28.654Z,77.86
2022-09-17T03:36:55.714Z,77.90
2022-09-17T03:39:22.669Z,76.93
2022-09-17T03:41:49.784Z,77.46
2022-09-17T03:44:18.931Z,78.47
2022-09-17T03:46:46.351Z,78.62
2022-09-17T03:49:13.342Z,78.17
2022-09-17T03:51:40.289Z,78.37
2022-09-17T03:54:07.621Z,78.62
2022-09-17T03:56:35.037Z,78.91
2022-09-17T03:59:02.491Z,78.66
2022-09-17T04:01:30.248Z,78.74
2022-09-17T04:03:58.114Z,78.75
2022-09-17T04:06:25.284Z,79.03
2022-09-17T04:08:53.781Z,78.73
2022-09-17T04:11:20.750Z,78.76
2022-09-17T04:13:48.010Z,78.79
2022-09-17T04:16:15.361Z,78.26
2022-09-17T04:18:42.346Z,78.80
2022-09-17T04:21:09.365Z,78.97
2022-09-17T04:23:36.281Z,78.70
2022-09-17T04:26:03.378Z,78.82
2022-09-17T04:28:30.374Z,78.20
2022-09-17T04:30:58.054Z,78.41
2022-09-17T04:33:25.159Z,78.08
2022-09-17T04:35:54.587Z,77.94
2022-09-17T04:38:22.515Z,77.82
2022-09-17T04:40:50.407Z,78.03
2022-09-17T04:43:17.814Z,77.40
2022-09-17T04:45:48.556Z,77.64
2022-09-17T04:48:15.677Z,77.72
2022-09-17T04:50:42.776Z,78.21
2022-09-17T04:53:09.986Z,78.88
2022-09-17T04:55:36.882Z,79.18
2022-09-17T04:58:04.960Z,78.50
2022-09-17T05:00:31.908Z,78.44
2022-09-17T05:02:58.856Z,78.87
2022-09-17T05:05:25.987Z,78.37
2022-09-17T05:07:53.355Z,78.84
2022-09-17T05:10:21.919Z,78.91
2022-09-17T05:12:50.406Z,78.49
2022-09-17T05:15:17.577Z,78.25
2022-09-17T05:17:44.683Z,78.28
2022-09-17T05:20:12.645Z,77.69
2022-09-17T05:22:50.296Z,77.85
2022-09-17T05:25:19.079Z,77.18
2022-09-17T05:27:46.260Z,77.09
2022-09-17T05:30:13.980Z,77.47
2022-09-17T05:32:41.213Z,77.01
2022-09-17T05:35:09.401Z,76.51
2022-09-17T05:37:37.301Z,76.60
2022-09-17T05:40:07.422Z,76.17
2022-09-17T05:42:34.918Z,75.96
2022-09-17T05:45:01.886Z,76.32
2022-09-17T05:47:28.865Z,76.18
2022-09-17T05:49:55.805Z,76.26
2022-09-17T05:52:22.934Z,75.85
2022-09-17T05:54:49.950Z,76.10
2022-09-17T05:57:17.128Z,75.60
2022-09-17T05:59:44.067Z,75.04
2022-09-17T06:02:14.276Z,75.06
2022-09-17T06:04:41.488Z,75.27
2022-09-17T06:07:09.698Z,74.89
2022-09-17T06:09:41.414Z,74.27
2022-09-17T06:12:08.954Z,73.80
2022-09-17T06:14:35.875Z,74.15
2022-09-17T06:17:02.819Z,73.88
2022-09-17T06:19:29.716Z,73.91
2022-09-17T06:21:56.700Z,73.36
2022-09-17T06:24:23.725Z,72.49
2022-09-17T06:26:52.427Z,72.13
2022-09-17T06:29:19.652Z,72.21
2022-09-17T06:31:49.159Z,71.75
2022-09-17T06:34:16.914Z,71.08
2022-09-17T06:36:44.290Z,70.95
2022-09-17T06:39:12.052Z,71.01
2022-09-17T06:41:39.506Z,70.59
2022-09-17T06:44:06.453Z,69.16
2022-09-17T06:46:33.432Z,69.73
2022-09-17T06:49:00.457Z,69.40
2022-09-17T06:51:27.379Z,68.11
2022-09-17T06:53:54.334Z,67.82
2022-09-17T06:56:21.308Z,67.08
2022-09-17T06:58:48.272Z,67.94
2022-09-17T07:01:15.297Z,67.51
2022-09-17T07:03:46.345Z,67.86
2022-09-17T07:06:13.328Z,65.70
2022-09-17T07:08:40.546Z,67.18
2022-09-17T07:11:08.657Z,66.95
2022-09-17T07:13:36.130Z,66.26
2022-09-17T07:16:05.413Z,66.69
2022-09-17T07:18:32.978Z,66.07
2022-09-17T07:21:02.387Z,65.29
2022-09-17T07:23:32.221Z,64.99
2022-09-17T07:26:04.478Z,65.10
2022-09-17T07:28:31.642Z,64.35
2022-09-17T07:30:58.609Z,63.88
2022-09-17T07:33:28.152Z,63.33
2022-09-17T07:35:57.421Z,63.19
2022-09-17T07:38:25.269Z,63.64
2022-09-17T07:41:06.240Z,62.56
2022-09-17T07:43:35.334Z,63.49
2022-09-17T07:46:04.478Z,63.67
2022-09-17T07:48:32.031Z,62.34
2022-09-17T07:50:58.992Z,62.22
2022-09-17T07:53:26.455Z,61.38
2022-09-17T07:55:55.124Z,62.84
2022-09-17T07:58:24.350Z,61.97
2022-09-17T08:00:51.357Z,62.23
2022-09-17T08:03:18.309Z,62.60
2022-09-17T08:05:45.326Z,61.54
2022-09-17T08:08:12.178Z,62.35
2022-09-17T08:10:39.151Z,61.55
2022-09-17T08:13:06.268Z,61.84
2022-09-17T08:15:33.121Z,62.46
2022-09-17T08:18:00.071Z,63.33
2022-09-17T08:20:27.017Z,64.24
2022-09-17T08:23:01.402Z,63.51
2022-09-17T08:25:28.427Z,63.01
2022-09-17T08:27:57.078Z,63.96
2022-09-17T08:30:24.375Z,63.53
2022-09-17T08:32:51.403Z,63.66
2022-09-17T08:35:18.416Z,64.25
2022-09-17T08:37:46.406Z,64.69
2022-09-17T08:40:22.822Z,64.54
2022-09-17T08:43:00.647Z,63.90
2022-09-17T08:45:28.159Z,64.89
2022-09-17T08:48:03.403Z,64.85
2022-09-17T08:50:34.360Z,64.06
2022-09-17T08:53:40.620Z,63.64
2022-09-17T08:56:16.441Z,62.22
2022-09-17T08:58:49.008Z,63.05
2022-09-17T09:01:43.218Z,62.63
2022-09-17T09:04:19.608Z,61.92
2022-09-17T09:07:23.499Z,61.45
2022-09-17T09:10:04.799Z,62.03
2022-09-17T09:12:35.934Z,61.64
2022-09-17T09:15:20.524Z,62.85
2022-09-17T09:17:51.319Z,62.84
2022-09-17T09:20:36.899Z,62.40
2022-09-17T09:23:19.490Z,62.85
2022-09-17T09:26:04.729Z,62.32
2022-09-17T09:28:59.415Z,62.74
2022-09-17T09:31:44.711Z,62.64
2022-09-17T09:34:14.590Z,62.70
2022-09-17T09:36:41.762Z,63.07
2022-09-17T09:39:22.378Z,63.28
2022-09-17T09:41:59.850Z,64.28
2022-09-17T09:44:27.559Z,63.65
2022-09-17T09:47:12.942Z,64.78
2022-09-17T09:50:02.824Z,64.34
2022-09-17T09:52:43.250Z,64.46
2022-09-17T09:55:31.902Z,63.79
2022-09-17T09:58:20.789Z,65.03
2022-09-17T10:00:48.267Z,64.82
2022-09-17T10:03:23.584Z,64.34
2022-09-17T10:05:55.044Z,64.48
2022-09-17T10:08:22.058Z,64.61
2022-09-17T10:11:04.057Z,64.55
2022-09-17T10:13:36.546Z,65.25
2022-09-17T10:16:23.285Z,65.64
2022-09-17T10:18:52.079Z,64.95
2022-09-17T10:21:30.679Z,65.50
2022-09-17T10:23:58.414Z,65.56
2022-09-17T10:26:29.529Z,65.61
2022-09-17T10:28:59.160Z,66.30
2022-09-17T10:31:26.419Z,65.44
2022-09-17T10:34:02.602Z,65.30
2022-09-17T10:36:40.522Z,66.06
2022-09-17T10:39:44.602Z,65.20
2022-09-17T10:42:11.596Z,65.86
2022-09-17T10:44:39.804Z,66.30
2022-09-17T10:47:19.405Z,66.10
2022-09-17T10:50:08.372Z,66.32
2022-09-17T10:52:47.732Z,65.91
2022-09-17T10:55:30.764Z,65.60
2022-09-17T10:58:07.653Z,65.84
2022-09-17T11:01:00.473Z,65.91
2022-09-17T11:03:36.358Z,65.84
2022-09-17T11:06:21.564Z,66.54
2022-09-17T11:09:27.578Z,68.63
2022-09-17T11:11:57.694Z,68.96
2022-09-17T11:15:02.840Z,69.64
2022-09-17T11:18:06.979Z,70.92
2022-09-17T11:20:52.407Z,70.63
2022-09-17T11:23:42.967Z,71.14
2022-09-17T11:26:21.812Z,70.20
2022-09-17T11:29:06.684Z,70.50
2022-09-17T11:31:52.297Z,69.63
2022-09-17T11:34:36.359Z,68.52
2022-09-17T11:37:13.110Z,68.51
2022-09-17T11:39:49.869Z,66.99
2022-09-17T11:42:28.586Z,67.01
2022-09-17T11:45:03.216Z,67.52
2022-09-17T11:47:35.686Z,66.77
2022-09-17T11:50:02.848Z,67.61
2022-09-17T11:52:40.449Z,67.76
2022-09-17T11:55:34.118Z,68.05
2022-09-17T11:58:08.311Z,67.65
2022-09-17T12:00:47.612Z,68.00
2022-09-17T12:03:26.583Z,68.55
2022-09-17T12:05:57.047Z,69.08
2022-09-17T12:08:34.108Z,69.74
2022-09-17T12:11:19.602Z,71.02
2022-09-17T12:13:49.106Z,70.92
2022-09-17T12:16:33.699Z,71.07
2022-09-17T12:19:16.977Z,70.66
2022-09-17T12:21:48.177Z,71.31
2022-09-17T12:24:26.493Z,71.40
2022-09-17T12:27:23.052Z,71.24
2022-09-17T12:30:07.166Z,72.44
2022-09-17T12:33:12.151Z,71.81
2022-09-17T12:36:05.185Z,72.47
2022-09-17T12:39:08.429Z,70.67
2022-09-17T12:42:08.932Z,71.50
2022-09-17T12:44:56.210Z,70.70
2022-09-17T12:47:51.526Z,70.97
2022-09-17T12:50:36.817Z,69.72
2022-09-17T12:53:28.035Z,68.68
2022-09-17T12:56:18.044Z,69.00
2022-09-17T12:58:55.888Z,68.89
2022-09-17T13:01:34.005Z,66.77
2022-09-17T13:04:13.282Z,67.25
2022-09-17T13:07:14.609Z,66.45
2022-09-17T13:10:06.088Z,64.64
2022-09-17T13:13:10.269Z,65.27
2022-09-17T13:15:43.127Z,65.01
2022-09-17T13:18:27.130Z,64.22
2022-09-17T13:21:13.775Z,64.38
2022-09-17T13:23:46.778Z,63.04
2022-09-17T13:26:17.592Z,64.43
2022-09-17T13:28:47.575Z,64.11
2022-09-17T13:31:40.196Z,65.46
2022-09-17T13:34:19.468Z,64.25
2022-09-17T13:36:53.596Z,64.86
2022-09-17T13:39:47.011Z,63.92
2022-09-17T13:42:18.085Z,64.95
2022-09-17T13:44:50.293Z,65.90
2022-09-17T13:47:30.681Z,64.83
2022-09-17T13:50:09.701Z,64.87
2022-09-17T13:52:39.933Z,65.90
2022-09-17T13:55:08.923Z,64.85
2022-09-17T13:57:50.250Z,64.76
2022-09-17T14:01:15.062Z,66.86
2022-09-17T14:03:42.281Z,66.37
2022-09-17T14:06:09.711Z,66.26
2022-09-17T14:08:45.830Z,66.09
2022-09-17T14:11:25.630Z,65.17
2022-09-17T14:13:59.062Z,66.08
2022-09-17T14:16:29.499Z,66.21
2022-09-17T14:19:22.780Z,66.71
2022-09-17T14:22:00.913Z,67.36
2022-09-17T14:24:39.801Z,67.50
2022-09-17T14:27:30.735Z,67.36
2022-09-17T14:30:09.932Z,68.18
2022-09-17T14:32:42.561Z,67.70
2022-09-17T14:35:36.181Z,67.58
2022-09-17T14:38:10.736Z,66.92
2022-09-17T14:40:46.556Z,67.83
2022-09-17T14:43:38.774Z,67.13
2022-09-17T14:46:10.214Z,69.90
2022-09-17T14:48:37.555Z,67.78
2022-09-17T14:51:20.104Z,68.44
2022-09-17T14:53:49.455Z,67.81
2022-09-17T14:56:23.677Z,68.67
2022-09-17T14:58:53.963Z,68.29
2022-09-17T15:01:25.525Z,68.68
2022-09-17T15:04:31.074Z,68.78
2022-09-17T15:07:09.869Z,68.64
2022-09-17T15:09:36.993Z,68.65
2022-09-17T15:12:06.683Z,68.08
2022-09-17T15:14:40.137Z,68.48
2022-09-17T15:17:09.339Z,68.04
2022-09-17T15:19:43.121Z,68.16
2022-09-17T15:22:29.928Z,68.49
2022-09-17T15:25:01.464Z,68.84
2022-09-17T15:27:34.213Z,68.22
2022-09-17T15:30:17.236Z,69.65
2022-09-17T15:32:51.535Z,69.54
2022-09-17T15:35:26.175Z,69.21
2022-09-17T15:38:21.756Z,69.94
2022-09-17T15:40:46.544Z,69.09
2022-09-17T15:43:28.710Z,70.45
2022-09-17T15:45:58.493Z,69.77
2022-09-17T15:48:37.844Z,69.29
2022-09-17T15:51:15.441Z,68.75
2022-09-17T15:53:55.759Z,69.15
2022-09-17T15:56:34.562Z,69.77
2022-09-17T15:59:23.188Z,69.55
2022-09-17T16:01:54.675Z,69.81
2022-09-17T16:04:23.193Z,70.21
2022-09-17T16:06:55.694Z,69.99
2022-09-17T16:09:41.675Z,70.09
2022-09-17T16:12:12.965Z,70.09
2022-09-17T16:14:44.412Z,70.23
2022-09-17T16:17:33.263Z,70.09
2022-09-17T16:20:06.482Z,69.63
2022-09-17T16:22:33.958Z,69.37
2022-09-17T16:25:00.858Z,69.59
2022-09-17T16:27:32.749Z,69.06
2022-09-17T16:30:06.072Z,69.17
2022-09-17T16:32:33.013Z,69.12
2022-09-17T16:35:00.171Z,69.09
2022-09-17T16:37:27.058Z,68.69
2022-09-17T16:39:54.227Z,68.70
2022-09-17T16:42:21.190Z,69.12
2022-09-17T16:44:48.151Z,69.46
2022-09-17T16:47:15.098Z,69.74
2022-09-17T16:49:42.071Z,70.60
2022-09-17T16:52:09.013Z,70.37
2022-09-17T16:54:35.888Z,70.82
2022-09-17T16:57:02.876Z,71.24
2022-09-17T16:59:29.801Z,71.65
2022-09-17T17:01:56.752Z,71.52
2022-09-17T17:04:24.785Z,72.25
2022-09-17T17:06:52.115Z,72.57
2022-09-17T17:09:19.051Z,72.29
2022-09-17T17:11:45.997Z,73.11
2022-09-17T17:14:14.918Z,72.82
2022-09-17T17:16:43.864Z,72.81
2022-09-17T17:19:11.286Z,73.07
2022-09-17T17:21:38.467Z,72.91
2022-09-17T17:24:07.026Z,72.89
2022-09-17T17:26:34.940Z,73.77
2022-09-17T17:29:03.274Z,73.77
2022-09-17T17:31:30.398Z,73.39
2022-09-17T17:33:58.523Z,73.98
2022-09-17T17:36:25.734Z,73.39
2022-09-17T17:38:57.296Z,73.95
2022-09-17T17:41:26.733Z,74.04
2022-09-17T17:43:54.624Z,73.64
2022-09-17T17:46:23.799Z,73.75
2022-09-17T17:48:51.571Z,73.89
2022-09-17T17:51:19.642Z,74.60
2022-09-17T17:53:47.031Z,74.63
2022-09-17T17:56:14.156Z,74.27
2022-09-17T17:58:41.621Z,74.65
2022-09-17T18:01:21.286Z,74.93
2022-09-17T18:03:48.500Z,74.55
2022-09-17T18:06:15.887Z,75.10
2022-09-17T18:08:44.502Z,74.54
2022-09-17T18:11:12.587Z,74.69
2022-09-17T18:13:40.435Z,74.93
2022-09-17T18:16:09.398Z,75.25
2022-09-17T18:18:44.850Z,75.14
2022-09-17T18:21:16.238Z,75.03
2022-09-17T18:23:43.895Z,75.08
2022-09-17T18:26:16.710Z,75.09
2022-09-17T18:28:45.042Z,75.11
2022-09-17T18:31:33.523Z,75.21
2022-09-17T18:34:08.541Z,75.05
2022-09-17T18:36:37.277Z,75.82
2022-09-17T18:39:33.227Z,74.83
2022-09-17T18:41:54.022Z,76.38
2022-09-17T18:44:22.129Z,75.97
2022-09-17T18:46:50.404Z,76.89
2022-09-17T18:49:17.810Z,76.60
2022-09-17T18:51:44.763Z,76.07
2022-09-17T18:54:13.037Z,75.92
2022-09-17T18:56:41.994Z,75.90
2022-09-17T18:59:10.222Z,75.74
2022-09-17T19:01:37.350Z,75.42
2022-09-17T19:04:05.047Z,76.24
2022-09-17T19:06:32.552Z,76.00
2022-09-17T19:09:04.978Z,76.66
2022-09-17T19:11:32.346Z,75.79
2022-09-17T19:13:59.478Z,75.82
2022-09-17T19:16:26.525Z,76.05
2022-09-17T19:18:53.983Z,75.95
2022-09-17T19:21:22.068Z,75.71
2022-09-17T19:23:51.343Z,75.58
2022-09-17T19:26:21.325Z,75.24
2022-09-17T19:28:48.378Z,75.44
2022-09-17T19:31:18.188Z,75.26
2022-09-17T19:33:45.963Z,75.33
2022-09-17T19:36:15.326Z,75.52
2022-09-17T19:38:42.868Z,75.49
2022-09-17T19:41:15.187Z,76.12
2022-09-17T19:43:42.572Z,75.62
2022-09-17T19:46:13.737Z,76.24
2022-09-17T19:48:51.257Z,75.44
2022-09-17T19:51:18.764Z,75.61
2022-09-17T19:53:45.977Z,76.18
2022-09-17T19:56:15.320Z,75.51
2022-09-17T19:58:42.991Z,75.47
2022-09-17T20:01:11.148Z,75.51
2022-09-17T20:03:43.243Z,75.97
2022-09-17T20:06:13.393Z,76.09
2022-09-17T20:08:54.810Z,76.20
2022-09-17T20:11:24.242Z,77.40
2022-09-17T20:13:57.221Z,76.81
2022-09-17T20:16:24.759Z,77.64
2022-09-17T20:18:51.962Z,77.08
2022-09-17T20:21:30.036Z,77.35
2022-09-17T20:23:58.027Z,76.92
2022-09-17T20:26:26.265Z,76.44
2022-09-17T20:28:54.292Z,77.45
2022-09-17T20:31:27.519Z,78.10
2022-09-17T20:33:59.873Z,77.77
2022-09-17T20:36:33.605Z,77.61
2022-09-17T20:39:21.367Z,77.41
2022-09-17T20:41:47.758Z,77.38
2022-09-17T20:44:14.772Z,77.13
2022-09-17T20:46:41.908Z,76.98
2022-09-17T20:49:09.288Z,77.34
2022-09-17T20:51:37.413Z,77.22
2022-09-17T20:54:05.037Z,77.06
2022-09-17T20:56:34.136Z,76.67
2022-09-17T20:59:25.212Z,77.12
2022-09-17T21:01:53.929Z,76.70
2022-09-17T21:04:21.534Z,77.16
2022-09-17T21:06:52.824Z,76.96
2022-09-17T21:09:20.946Z,76.72
2022-09-17T21:11:49.273Z,77.31
2022-09-17T21:14:21.602Z,77.54
2022-09-17T21:16:49.419Z,77.31
2022-09-17T21:19:16.867Z,77.10
2022-09-17T21:21:44.478Z,77.29
2022-09-17T21:24:11.628Z,77.12
2022-09-17T21:26:38.607Z,77.68
2022-09-17T21:29:05.601Z,78.00
2022-09-17T21:31:34.635Z,78.07
2022-09-17T21:34:04.882Z,78.88
2022-09-17T21:36:33.993Z,78.79
2022-09-17T21:39:04.214Z,78.82
2022-09-17T21:41:31.694Z,79.05
2022-09-17T21:43:58.754Z,78.97
2022-09-17T21:46:32.751Z,78.88
2022-09-17T21:49:02.503Z,78.34
2022-09-17T21:51:34.350Z,78.91
2022-09-17T21:54:03.263Z,78.99
2022-09-17T21:56:31.176Z,78.10
2022-09-17T21:59:00.531Z,77.90
2022-09-17T22:01:32.059Z,77.75
2022-09-17T22:04:00.532Z,77.44
2022-09-17T22:06:30.018Z,77.65
2022-09-17T22:08:58.626Z,77.51
2022-09-17T22:11:32.228Z,77.47
2022-09-17T22:14:09.519Z,77.05
2022-09-17T22:16:39.734Z,76.91
2022-09-17T22:19:08.162Z,77.69
2022-09-17T22:21:37.791Z,77.24
2022-09-17T22:24:06.294Z,76.87
2022-09-17T22:26:36.454Z,76.90
2022-09-17T22:29:12.241Z,77.25
2022-09-17T22:31:39.966Z,76.16
2022-09-17T22:34:09.397Z,76.23
2022-09-17T22:36:36.763Z,76.86
2022-09-17T22:39:04.690Z,76.94
2022-09-17T22:41:34.121Z,76.80
2022-09-17T22:44:04.272Z,76.87
2022-09-17T22:46:33.721Z,77.05
2022-09-17T22:49:01.146Z,76.82
2022-09-17T22:51:29.890Z,77.20
2022-09-17T22:53:58.655Z,77.00
2022-09-17T22:56:27.600Z,77.17
2022-09-17T22:58:56.709Z,76.75
2022-09-17T23:01:29.942Z,76.69
2022-09-17T23:03:58.414Z,76.50
2022-09-17T23:06:30.910Z,77.16
2022-09-17T23:08:58.861Z,77.08
2022-09-17T23:11:34.269Z,76.93
2022-09-17T23:14:04.813Z,77.35
2022-09-17T23:16:37.122Z,77.14
2022-09-17T23:19:04.320Z,77.13
2022-09-17T23:21:31.449Z,76.47
2022-09-17T23:23:58.863Z,77.05
2022-09-17T23:26:27.339Z,77.42
2022-09-17T23:28:54.304Z,76.97
2022-09-17T23:31:28.796Z,77.31
2022-09-17T23:33:57.158Z,77.28
2022-09-17T23:36:27.364Z,77.52
2022-09-17T23:38:55.667Z,77.49
2022-09-17T23:41:28.598Z,77.61
2022-09-17T23:43:57.683Z,77.57
2022-09-17T23:46:26.457Z,77.57
2022-09-17T23:48:56.153Z,77.93
2022-09-17T23:51:27.716Z,77.75
2022-09-17T23:53:55.386Z,77.34
2022-09-17T23:56:28.258Z,77.23
2022-09-17T23:58:57.135Z,77.24
